首页
METAR-TAF:

METAR-TAF

机场 :

的黎波里, 利比亚

Mitiga International Airport

纬度: 32-54N, 经度: 13-17E, 海拔: 11米

当前天气观测

该预报发布于37分钟前的13:50 UTC
风速10节,风向西北,在西之间变化
温度 18°C
湿度 73%
气压 1021 hPa
能見度: 7000
多云层高于3000英尺
多云层高于7000英尺

METAR: HLLM 221350Z 31010KT 280V360 7000 BKN030 BKN070 18/13 Q1021

时间: 16:27 (14:27 UTC)

预报

该预报发布于9小时和27分钟前的05:00 UTC
预报有效从22日的 06点(UTC)到 23日的 06点(UTC)
风速10节,风向西转西南
能見度: 8000
散云层高于2500英尺

TAF: HLLM 220500Z 2206/2306 27015KT 8000 SCT025 BECMG2212/2214 34015KT BECMG2218/2220 24010KT

超过4000个机场的气象观测和天气预报(METAR&TAF报告)。

可查询的气象台以黄色和红色小点在地图上表示。

将鼠标移到小点上方,可查看气象台名称。

然后点击查看天气观测和预报。

如需切换地图:点击带黑十字的绿色按钮放大地图;点击带横线的绿色按钮缩小地图;或者点击绿色箭头查看邻近地区的地图。


METAR-TAF: